sensor_id;sensor_type;location;lat;lon;timestamp;pressure;altitude;pressure_sealevel;temperature;humidity
84043;BME280;74129;52.540;13.416;2023-12-22T00:02:23;97847.36;;;4.70;63.37
84043;BME280;74129;52.540;13.416;2023-12-22T00:04:57;97864.55;;;4.65;63.24
84043;BME280;74129;52.540;13.416;2023-12-22T00:07:35;97855.97;;;4.62;63.29
84043;BME280;74129;52.540;13.416;2023-12-22T00:10:04;97857.29;;;4.57;63.60
84043;BME280;74129;52.540;13.416;2023-12-22T00:12:57;97885.08;;;4.53;63.10
84043;BME280;74129;52.540;13.416;2023-12-22T00:16:05;97889.37;;;4.50;62.76
84043;BME280;74129;52.540;13.416;2023-12-22T00:18:33;97870.77;;;4.45;62.91
84043;BME280;74129;52.540;13.416;2023-12-22T00:21:19;97897.63;;;4.41;62.39
84043;BME280;74129;52.540;13.416;2023-12-22T00:23:46;97886.59;;;4.39;62.50
84043;BME280;74129;52.540;13.416;2023-12-22T00:26:13;97884.08;;;4.35;62.28
84043;BME280;74129;52.540;13.416;2023-12-22T00:28:41;97882.38;;;4.34;62.48
84043;BME280;74129;52.540;13.416;2023-12-22T00:31:19;97887.40;;;4.33;61.09
84043;BME280;74129;52.540;13.416;2023-12-22T00:33:53;97905.31;;;4.35;60.97
84043;BME280;74129;52.540;13.416;2023-12-22T00:36:23;97900.64;;;4.38;60.97
84043;BME280;74129;52.540;13.416;2023-12-22T00:38:56;97907.99;;;4.39;60.28
84043;BME280;74129;52.540;13.416;2023-12-22T00:41:29;97900.77;;;4.43;60.33
84043;BME280;74129;52.540;13.416;2023-12-22T00:44:07;97910.77;;;4.45;60.37
84043;BME280;74129;52.540;13.416;2023-12-22T00:46:45;97920.21;;;4.47;60.09
84043;BME280;74129;52.540;13.416;2023-12-22T00:49:12;97926.80;;;4.48;60.39
84043;BME280;74129;52.540;13.416;2023-12-22T00:51:38;97930.89;;;4.50;60.74
84043;BME280;74129;52.540;13.416;2023-12-22T00:54:13;97940.23;;;4.51;60.87
84043;BME280;74129;52.540;13.416;2023-12-22T00:56:50;97941.35;;;4.52;60.73
84043;BME280;74129;52.540;13.416;2023-12-22T00:59:19;97952.75;;;4.52;61.25
84043;BME280;74129;52.540;13.416;2023-12-22T01:01:49;97952.97;;;4.51;61.42
84043;BME280;74129;52.540;13.416;2023-12-22T01:04:16;97944.41;;;4.49;62.06
84043;BME280;74129;52.540;13.416;2023-12-22T01:06:43;97955.04;;;4.46;62.36
84043;BME280;74129;52.540;13.416;2023-12-22T01:09:09;97960.23;;;4.43;62.46
84043;BME280;74129;52.540;13.416;2023-12-22T01:11:36;97960.83;;;4.40;62.87
84043;BME280;74129;52.540;13.416;2023-12-22T01:14:19;97970.85;;;4.39;62.91
84043;BME280;74129;52.540;13.416;2023-12-22T01:16:51;97972.50;;;4.39;63.10
84043;BME280;74129;52.540;13.416;2023-12-22T01:19:18;97988.59;;;4.37;63.26
84043;BME280;74129;52.540;13.416;2023-12-22T01:21:54;97991.32;;;4.36;63.44
84043;BME280;74129;52.540;13.416;2023-12-22T01:24:20;98011.17;;;4.34;63.67
84043;BME280;74129;52.540;13.416;2023-12-22T01:26:54;97996.22;;;4.33;64.11
84043;BME280;74129;52.540;13.416;2023-12-22T01:29:30;97987.13;;;4.33;64.40
84043;BME280;74129;52.540;13.416;2023-12-22T01:32:06;97993.36;;;4.32;64.69
84043;BME280;74129;52.540;13.416;2023-12-22T01:34:33;97990.13;;;4.31;64.74
84043;BME280;74129;52.540;13.416;2023-12-22T01:37:05;98019.79;;;4.29;64.98
84043;BME280;74129;52.540;13.416;2023-12-22T01:39:46;98006.69;;;4.29;65.14
84043;BME280;74129;52.540;13.416;2023-12-22T01:45:11;98020.54;;;4.28;65.63
84043;BME280;74129;52.540;13.416;2023-12-22T01:47:40;98006.70;;;4.26;65.69
84043;BME280;74129;52.540;13.416;2023-12-22T01:50:10;98001.98;;;4.26;65.89
84043;BME280;74129;52.540;13.416;2023-12-22T01:52:41;98022.90;;;4.25;65.67
84043;BME280;74129;52.540;13.416;2023-12-22T01:55:11;98026.88;;;4.24;65.67
84043;BME280;74129;52.540;13.416;2023-12-22T01:57:51;98022.75;;;4.23;66.04
84043;BME280;74129;52.540;13.416;2023-12-22T02:00:20;98029.22;;;4.18;65.90
84043;BME280;74129;52.540;13.416;2023-12-22T02:02:57;98021.48;;;4.22;66.03
84043;BME280;74129;52.540;13.416;2023-12-22T02:05:24;98024.47;;;4.20;66.09
84043;BME280;74129;52.540;13.416;2023-12-22T02:07:54;98026.24;;;4.18;65.87
84043;BME280;74129;52.540;13.416;2023-12-22T02:10:21;98026.94;;;4.16;65.93
84043;BME280;74129;52.540;13.416;2023-12-22T02:12:50;98022.90;;;4.15;66.16
84043;BME280;74129;52.540;13.416;2023-12-22T02:15:22;98040.09;;;4.15;66.08
84043;BME280;74129;52.540;13.416;2023-12-22T02:18:19;98018.50;;;4.14;66.26
84043;BME280;74129;52.540;13.416;2023-12-22T02:20:51;98034.88;;;4.14;65.99
84043;BME280;74129;52.540;13.416;2023-12-22T02:23:19;98034.36;;;4.12;66.35
84043;BME280;74129;52.540;13.416;2023-12-22T02:25:54;98021.05;;;4.12;66.11
84043;BME280;74129;52.540;13.416;2023-12-22T02:28:23;98029.05;;;4.11;66.05
84043;BME280;74129;52.540;13.416;2023-12-22T02:31:04;98014.58;;;4.10;66.36
84043;BME280;74129;52.540;13.416;2023-12-22T02:33:36;98033.05;;;4.08;66.43
84043;BME280;74129;52.540;13.416;2023-12-22T02:36:44;98036.95;;;4.06;66.70
84043;BME280;74129;52.540;13.416;2023-12-22T02:42:02;98030.27;;;4.04;66.76
84043;BME280;74129;52.540;13.416;2023-12-22T02:44:35;98031.33;;;4.02;67.29
84043;BME280;74129;52.540;13.416;2023-12-22T02:47:15;98035.21;;;4.03;67.31
84043;BME280;74129;52.540;13.416;2023-12-22T02:52:47;98038.62;;;4.01;67.17
84043;BME280;74129;52.540;13.416;2023-12-22T02:55:25;98042.25;;;3.99;67.17
84043;BME280;74129;52.540;13.416;2023-12-22T02:58:22;98045.18;;;3.98;66.89
84043;BME280;74129;52.540;13.416;2023-12-22T03:00:50;98034.35;;;3.95;67.16
84043;BME280;74129;52.540;13.416;2023-12-22T03:03:28;98022.77;;;3.93;66.94
84043;BME280;74129;52.540;13.416;2023-12-22T03:06:38;98012.51;;;3.93;66.81
84043;BME280;74129;52.540;13.416;2023-12-22T03:09:06;98015.75;;;3.93;66.77
84043;BME280;74129;52.540;13.416;2023-12-22T03:11:45;98037.73;;;3.92;66.47
84043;BME280;74129;52.540;13.416;2023-12-22T03:14:38;98025.87;;;3.90;66.87
84043;BME280;74129;52.540;13.416;2023-12-22T03:17:06;98042.09;;;3.89;66.89
84043;BME280;74129;52.540;13.416;2023-12-22T03:22:21;98020.00;;;3.82;67.11
84043;BME280;74129;52.540;13.416;2023-12-22T03:24:50;98003.69;;;3.79;67.47
84043;BME280;74129;52.540;13.416;2023-12-22T03:30:30;98024.67;;;3.73;67.96
84043;BME280;74129;52.540;13.416;2023-12-22T03:33:02;98031.60;;;3.70;68.27
84043;BME280;74129;52.540;13.416;2023-12-22T03:35:52;98019.42;;;3.68;68.50
84043;BME280;74129;52.540;13.416;2023-12-22T03:38:22;98028.58;;;3.67;68.40
84043;BME280;74129;52.540;13.416;2023-12-22T03:40:53;98035.17;;;3.66;68.46
84043;BME280;74129;52.540;13.416;2023-12-22T03:43:29;98014.77;;;3.66;68.32
84043;BME280;74129;52.540;13.416;2023-12-22T03:45:57;98010.02;;;3.67;68.30
84043;BME280;74129;52.540;13.416;2023-12-22T03:48:24;98020.76;;;3.67;68.68
84043;BME280;74129;52.540;13.416;2023-12-22T03:51:23;98025.06;;;3.68;68.29
84043;BME280;74129;52.540;13.416;2023-12-22T03:53:55;98025.65;;;3.69;68.56
84043;BME280;74129;52.540;13.416;2023-12-22T03:56:21;98037.98;;;3.69;68.54
84043;BME280;74129;52.540;13.416;2023-12-22T03:58:50;98038.67;;;3.69;68.28
84043;BME280;74129;52.540;13.416;2023-12-22T04:01:17;98035.96;;;3.70;68.25
84043;BME280;74129;52.540;13.416;2023-12-22T04:03:54;98034.98;;;3.71;68.22
84043;BME280;74129;52.540;13.416;2023-12-22T04:06:41;98035.27;;;3.71;68.30
84043;BME280;74129;52.540;13.416;2023-12-22T04:09:16;98045.05;;;3.72;68.15
84043;BME280;74129;52.540;13.416;2023-12-22T04:12:08;98049.99;;;3.72;68.33
84043;BME280;74129;52.540;13.416;2023-12-22T04:14:54;98043.16;;;3.74;68.35
84043;BME280;74129;52.540;13.416;2023-12-22T04:17:20;98052.90;;;3.74;68.56
84043;BME280;74129;52.540;13.416;2023-12-22T04:19:50;98063.38;;;3.72;68.79
84043;BME280;74129;52.540;13.416;2023-12-22T04:22:29;98043.25;;;3.66;69.19
84043;BME280;74129;52.540;13.416;2023-12-22T04:24:59;98041.85;;;3.59;69.49
84043;BME280;74129;52.540;13.416;2023-12-22T04:27:36;98044.31;;;3.55;69.60
84043;BME280;74129;52.540;13.416;2023-12-22T04:30:20;98042.18;;;3.53;70.18
84043;BME280;74129;52.540;13.416;2023-12-22T04:32:54;98051.23;;;3.52;70.26
84043;BME280;74129;52.540;13.416;2023-12-22T04:35:37;98050.77;;;3.48;70.62
84043;BME280;74129;52.540;13.416;2023-12-22T04:38:03;98036.80;;;3.43;70.73
84043;BME280;74129;52.540;13.416;2023-12-22T04:40:30;98028.78;;;3.41;70.69
84043;BME280;74129;52.540;13.416;2023-12-22T04:43:07;98032.67;;;3.38;71.00
84043;BME280;74129;52.540;13.416;2023-12-22T04:45:45;98025.45;;;3.34;71.12
84043;BME280;74129;52.540;13.416;2023-12-22T04:48:32;98036.61;;;3.34;71.25
84043;BME280;74129;52.540;13.416;2023-12-22T04:51:07;98026.20;;;3.35;71.60
84043;BME280;74129;52.540;13.416;2023-12-22T04:53:54;98037.66;;;3.37;71.27
84043;BME280;74129;52.540;13.416;2023-12-22T04:56:21;98056.11;;;3.39;71.20
84043;BME280;74129;52.540;13.416;2023-12-22T04:59:00;98047.39;;;3.39;71.58
84043;BME280;74129;52.540;13.416;2023-12-22T05:01:27;98036.91;;;3.40;71.65
84043;BME280;74129;52.540;13.416;2023-12-22T05:04:04;98048.77;;;3.40;71.87
84043;BME280;74129;52.540;13.416;2023-12-22T05:06:35;98053.92;;;3.38;72.22
84043;BME280;74129;52.540;13.416;2023-12-22T05:09:04;98047.40;;;3.32;72.76
84043;BME280;74129;52.540;13.416;2023-12-22T05:14:16;98052.91;;;3.19;73.44
84043;BME280;74129;52.540;13.416;2023-12-22T05:17:06;98041.11;;;3.14;73.55
84043;BME280;74129;52.540;13.416;2023-12-22T05:19:44;98046.27;;;3.08;73.87
84043;BME280;74129;52.540;13.416;2023-12-22T05:22:17;98052.30;;;3.01;73.76
84043;BME280;74129;52.540;13.416;2023-12-22T05:25:00;98027.93;;;2.93;74.20
84043;BME280;74129;52.540;13.416;2023-12-22T05:27:29;98014.92;;;2.86;73.94
84043;BME280;74129;52.540;13.416;2023-12-22T05:30:01;98013.44;;;2.82;74.08
84043;BME280;74129;52.540;13.416;2023-12-22T05:32:30;98013.91;;;2.81;74.42
84043;BME280;74129;52.540;13.416;2023-12-22T05:34:57;98012.17;;;2.80;74.24
84043;BME280;74129;52.540;13.416;2023-12-22T05:37:23;98034.56;;;2.81;74.18
84043;BME280;74129;52.540;13.416;2023-12-22T05:39:52;98035.85;;;2.82;74.16
84043;BME280;74129;52.540;13.416;2023-12-22T05:42:21;98045.41;;;2.84;74.11
84043;BME280;74129;52.540;13.416;2023-12-22T05:44:50;98045.72;;;2.84;74.39
84043;BME280;74129;52.540;13.416;2023-12-22T05:47:24;98037.13;;;2.85;74.37
84043;BME280;74129;52.540;13.416;2023-12-22T05:49:51;98024.44;;;2.84;74.40
84043;BME280;74129;52.540;13.416;2023-12-22T05:52:38;98032.88;;;2.86;74.45
84043;BME280;74129;52.540;13.416;2023-12-22T05:55:12;98044.87;;;2.86;74.23
84043;BME280;74129;52.540;13.416;2023-12-22T06:00:21;98043.70;;;2.85;73.70
84043;BME280;74129;52.540;13.416;2023-12-22T06:02:53;98037.17;;;2.85;73.86
84043;BME280;74129;52.540;13.416;2023-12-22T06:05:39;98033.93;;;2.86;73.75
84043;BME280;74129;52.540;13.416;2023-12-22T06:08:09;98024.33;;;2.87;73.12
84043;BME280;74129;52.540;13.416;2023-12-22T06:13:46;98044.14;;;2.86;72.19
84043;BME280;74129;52.540;13.416;2023-12-22T06:16:18;98035.37;;;2.85;72.26
84043;BME280;74129;52.540;13.416;2023-12-22T06:18:50;98046.95;;;2.85;72.47
84043;BME280;74129;52.540;13.416;2023-12-22T06:21:22;98052.95;;;2.85;71.43
84043;BME280;74129;52.540;13.416;2023-12-22T06:24:09;98047.58;;;2.85;71.57
84043;BME280;74129;52.540;13.416;2023-12-22T06:26:39;98046.42;;;2.85;71.64
84043;BME280;74129;52.540;13.416;2023-12-22T06:29:37;98047.38;;;2.85;71.05
84043;BME280;74129;52.540;13.416;2023-12-22T06:32:06;98032.60;;;2.85;70.44
84043;BME280;74129;52.540;13.416;2023-12-22T06:34:35;98040.25;;;2.86;70.71
84043;BME280;74129;52.540;13.416;2023-12-22T06:37:18;98055.48;;;2.87;70.81
84043;BME280;74129;52.540;13.416;2023-12-22T06:40:00;98050.39;;;2.88;70.38
84043;BME280;74129;52.540;13.416;2023-12-22T06:42:58;98043.60;;;2.87;70.41
84043;BME280;74129;52.540;13.416;2023-12-22T06:45:45;98047.00;;;2.88;70.50
84043;BME280;74129;52.540;13.416;2023-12-22T06:48:17;98062.29;;;2.87;71.28
84043;BME280;74129;52.540;13.416;2023-12-22T06:50:52;98056.87;;;2.83;72.17
84043;BME280;74129;52.540;13.416;2023-12-22T06:53:39;98066.81;;;2.75;72.88
84043;BME280;74129;52.540;13.416;2023-12-22T06:56:30;98067.60;;;2.64;73.93
84043;BME280;74129;52.540;13.416;2023-12-22T06:59:00;98073.27;;;2.56;74.26
84043;BME280;74129;52.540;13.416;2023-12-22T07:01:38;98073.32;;;2.49;74.47
84043;BME280;74129;52.540;13.416;2023-12-22T07:04:05;98078.23;;;2.41;75.15
84043;BME280;74129;52.540;13.416;2023-12-22T07:06:34;98113.09;;;2.36;75.42
84043;BME280;74129;52.540;13.416;2023-12-22T07:09:42;98103.95;;;2.31;75.79
84043;BME280;74129;52.540;13.416;2023-12-22T07:12:14;98112.69;;;2.24;76.08
84043;BME280;74129;52.540;13.416;2023-12-22T07:14:43;98110.98;;;2.21;75.96
84043;BME280;74129;52.540;13.416;2023-12-22T07:17:12;98117.94;;;2.22;76.29
84043;BME280;74129;52.540;13.416;2023-12-22T07:20:02;98122.23;;;2.25;76.28
84043;BME280;74129;52.540;13.416;2023-12-22T07:22:34;98125.91;;;2.29;76.65
84043;BME280;74129;52.540;13.416;2023-12-22T07:25:11;98133.25;;;2.33;76.23
84043;BME280;74129;52.540;13.416;2023-12-22T07:27:40;98115.70;;;2.37;76.37
84043;BME280;74129;52.540;13.416;2023-12-22T07:30:11;98115.64;;;2.41;75.90
84043;BME280;74129;52.540;13.416;2023-12-22T07:33:08;98117.25;;;2.46;75.30
84043;BME280;74129;52.540;13.416;2023-12-22T07:38:34;98110.41;;;2.54;75.15
84043;BME280;74129;52.540;13.416;2023-12-22T07:41:03;98123.54;;;2.58;74.85
84043;BME280;74129;52.540;13.416;2023-12-22T07:43:39;98118.82;;;2.64;74.04
84043;BME280;74129;52.540;13.416;2023-12-22T07:46:16;98112.87;;;2.67;72.96
84043;BME280;74129;52.540;13.416;2023-12-22T07:48:42;98123.71;;;2.75;72.91
84043;BME280;74129;52.540;13.416;2023-12-22T07:51:14;98116.23;;;2.81;72.38
84043;BME280;74129;52.540;13.416;2023-12-22T07:53:49;98101.48;;;2.86;72.65
84043;BME280;74129;52.540;13.416;2023-12-22T07:56:32;98108.48;;;2.90;72.49
84043;BME280;74129;52.540;13.416;2023-12-22T07:59:06;98121.48;;;2.93;72.40
84043;BME280;74129;52.540;13.416;2023-12-22T08:01:40;98120.80;;;2.95;72.50
84043;BME280;74129;52.540;13.416;2023-12-22T08:04:27;98123.83;;;2.99;72.25
84043;BME280;74129;52.540;13.416;2023-12-22T08:06:56;98134.36;;;3.03;71.37
84043;BME280;74129;52.540;13.416;2023-12-22T08:12:44;98139.66;;;3.05;71.34
84043;BME280;74129;52.540;13.416;2023-12-22T08:15:16;98147.66;;;3.06;70.36
84043;BME280;74129;52.540;13.416;2023-12-22T08:17:49;98139.71;;;3.06;70.39
84043;BME280;74129;52.540;13.416;2023-12-22T08:20:20;98138.98;;;3.06;70.23
84043;BME280;74129;52.540;13.416;2023-12-22T08:22:55;98148.00;;;3.05;69.76
84043;BME280;74129;52.540;13.416;2023-12-22T08:25:26;98171.43;;;3.04;69.61
84043;BME280;74129;52.540;13.416;2023-12-22T08:27:53;98174.23;;;3.06;69.15
84043;BME280;74129;52.540;13.416;2023-12-22T08:30:42;98168.08;;;3.04;69.41
84043;BME280;74129;52.540;13.416;2023-12-22T08:33:09;98195.00;;;3.02;69.35
84043;BME280;74129;52.540;13.416;2023-12-22T08:35:39;98163.08;;;2.99;69.05
84043;BME280;74129;52.540;13.416;2023-12-22T08:38:11;98167.02;;;2.94;69.26
84043;BME280;74129;52.540;13.416;2023-12-22T08:40:42;98193.92;;;2.91;69.22
84043;BME280;74129;52.540;13.416;2023-12-22T08:43:12;98199.98;;;2.91;69.23
84043;BME280;74129;52.540;13.416;2023-12-22T08:45:41;98197.59;;;2.89;69.05
84043;BME280;74129;52.540;13.416;2023-12-22T08:48:08;98209.05;;;2.89;69.26
84043;BME280;74129;52.540;13.416;2023-12-22T08:50:35;98202.27;;;2.89;68.52
84043;BME280;74129;52.540;13.416;2023-12-22T08:53:01;98209.52;;;2.88;68.85
84043;BME280;74129;52.540;13.416;2023-12-22T08:58:07;98197.16;;;2.89;68.97
84043;BME280;74129;52.540;13.416;2023-12-22T09:00:34;98197.60;;;2.90;68.49
84043;BME280;74129;52.540;13.416;2023-12-22T09:03:15;98202.17;;;2.92;68.79
84043;BME280;74129;52.540;13.416;2023-12-22T09:08:41;98209.13;;;2.94;68.26
84043;BME280;74129;52.540;13.416;2023-12-22T09:11:23;98202.55;;;3.00;68.78
84043;BME280;74129;52.540;13.416;2023-12-22T09:13:53;98228.89;;;3.06;68.26
84043;BME280;74129;52.540;13.416;2023-12-22T09:16:25;98243.45;;;3.13;67.76
84043;BME280;74129;52.540;13.416;2023-12-22T09:18:52;98221.67;;;3.17;67.72
84043;BME280;74129;52.540;13.416;2023-12-22T09:21:24;98219.84;;;3.20;67.27
84043;BME280;74129;52.540;13.416;2023-12-22T09:23:51;98228.44;;;3.24;67.31
84043;BME280;74129;52.540;13.416;2023-12-22T09:26:39;98233.38;;;3.29;67.21
84043;BME280;74129;52.540;13.416;2023-12-22T09:29:15;98240.03;;;3.31;67.24
84043;BME280;74129;52.540;13.416;2023-12-22T09:31:47;98238.33;;;3.33;67.10
84043;BME280;74129;52.540;13.416;2023-12-22T09:34:26;98255.07;;;3.35;66.76
84043;BME280;74129;52.540;13.416;2023-12-22T09:37:16;98264.69;;;3.42;66.57
84043;BME280;74129;52.540;13.416;2023-12-22T09:39:43;98251.77;;;3.49;65.83
84043;BME280;74129;52.540;13.416;2023-12-22T09:42:09;98251.89;;;3.57;65.27
84043;BME280;74129;52.540;13.416;2023-12-22T09:44:41;98261.04;;;3.62;65.45
84043;BME280;74129;52.540;13.416;2023-12-22T09:47:11;98260.92;;;3.67;65.29
84043;BME280;74129;52.540;13.416;2023-12-22T09:49:44;98274.27;;;3.72;64.92
84043;BME280;74129;52.540;13.416;2023-12-22T09:52:38;98276.91;;;3.77;64.65
84043;BME280;74129;52.540;13.416;2023-12-22T09:55:15;98296.60;;;3.86;64.39
84043;BME280;74129;52.540;13.416;2023-12-22T09:57:49;98292.82;;;3.87;63.80
84043;BME280;74129;52.540;13.416;2023-12-22T10:00:25;98301.54;;;3.84;64.00
84043;BME280;74129;52.540;13.416;2023-12-22T10:02:58;98297.13;;;3.87;64.09
84043;BME280;74129;52.540;13.416;2023-12-22T10:08:41;98311.64;;;3.93;63.80
84043;BME280;74129;52.540;13.416;2023-12-22T10:11:19;98300.85;;;3.91;64.24
84043;BME280;74129;52.540;13.416;2023-12-22T10:16:29;98302.38;;;3.98;63.19
84043;BME280;74129;52.540;13.416;2023-12-22T10:19:06;98310.45;;;4.04;63.20
84043;BME280;74129;52.540;13.416;2023-12-22T10:21:59;98299.76;;;4.09;63.21
84043;BME280;74129;52.540;13.416;2023-12-22T10:24:45;98296.82;;;4.12;62.23
84043;BME280;74129;52.540;13.416;2023-12-22T10:27:38;98320.44;;;4.21;61.80
84043;BME280;74129;52.540;13.416;2023-12-22T10:30:09;98293.73;;;4.21;61.81
84043;BME280;74129;52.540;13.416;2023-12-22T10:32:50;98297.23;;;4.25;62.04
84043;BME280;74129;52.540;13.416;2023-12-22T10:35:25;98299.45;;;4.30;61.39
84043;BME280;74129;52.540;13.416;2023-12-22T10:38:03;98290.29;;;4.36;61.74
84043;BME280;74129;52.540;13.416;2023-12-22T10:40:33;98312.73;;;4.42;60.83
84043;BME280;74129;52.540;13.416;2023-12-22T10:43:00;98301.70;;;4.44;61.00
84043;BME280;74129;52.540;13.416;2023-12-22T10:45:51;98307.19;;;4.45;60.35
84043;BME280;74129;52.540;13.416;2023-12-22T10:48:31;98295.08;;;4.52;61.04
84043;BME280;74129;52.540;13.416;2023-12-22T10:51:38;98305.38;;;4.61;60.42
84043;BME280;74129;52.540;13.416;2023-12-22T10:54:25;98302.17;;;4.65;60.61
84043;BME280;74129;52.540;13.416;2023-12-22T10:57:23;98308.14;;;4.63;60.06
84043;BME280;74129;52.540;13.416;2023-12-22T11:00:32;98302.67;;;4.58;60.41
84043;BME280;74129;52.540;13.416;2023-12-22T11:03:30;98298.85;;;4.56;60.28
84043;BME280;74129;52.540;13.416;2023-12-22T11:06:11;98307.63;;;4.59;60.16
84043;BME280;74129;52.540;13.416;2023-12-22T11:08:46;98309.11;;;4.57;59.76
84043;BME280;74129;52.540;13.416;2023-12-22T11:11:42;98292.34;;;4.58;60.32
84043;BME280;74129;52.540;13.416;2023-12-22T11:14:09;98302.45;;;4.60;59.22
84043;BME280;74129;52.540;13.416;2023-12-22T11:16:41;98315.61;;;4.62;58.69
84043;BME280;74129;52.540;13.416;2023-12-22T11:19:15;98305.69;;;4.63;59.12
84043;BME280;74129;52.540;13.416;2023-12-22T11:22:12;98309.41;;;4.64;58.61
84043;BME280;74129;52.540;13.416;2023-12-22T11:24:41;98308.55;;;4.67;58.33
84043;BME280;74129;52.540;13.416;2023-12-22T11:27:11;98314.72;;;4.70;58.43
84043;BME280;74129;52.540;13.416;2023-12-22T11:29:40;98302.67;;;4.72;58.77
84043;BME280;74129;52.540;13.416;2023-12-22T11:32:10;98306.73;;;4.72;58.70
84043;BME280;74129;52.540;13.416;2023-12-22T11:34:44;98319.98;;;4.73;58.00
84043;BME280;74129;52.540;13.416;2023-12-22T11:37:12;98302.39;;;4.75;58.33
84043;BME280;74129;52.540;13.416;2023-12-22T11:39:43;98323.48;;;4.77;58.02
84043;BME280;74129;52.540;13.416;2023-12-22T11:42:30;98308.92;;;4.81;58.38
84043;BME280;74129;52.540;13.416;2023-12-22T11:45:01;98306.04;;;4.85;58.41
84043;BME280;74129;52.540;13.416;2023-12-22T11:47:29;98297.98;;;4.86;57.61
84043;BME280;74129;52.540;13.416;2023-12-22T11:50:12;98304.43;;;4.86;57.48
84043;BME280;74129;52.540;13.416;2023-12-22T11:52:41;98307.47;;;4.85;57.21
84043;BME280;74129;52.540;13.416;2023-12-22T11:58:33;98327.79;;;4.80;57.15
84043;BME280;74129;52.540;13.416;2023-12-22T12:01:01;98351.26;;;4.73;57.01
84043;BME280;74129;52.540;13.416;2023-12-22T12:06:43;98332.67;;;4.69;57.65
84043;BME280;74129;52.540;13.416;2023-12-22T12:09:12;98353.17;;;4.69;58.12
84043;BME280;74129;52.540;13.416;2023-12-22T12:12:16;98322.60;;;4.71;58.48
84043;BME280;74129;52.540;13.416;2023-12-22T12:15:09;98327.31;;;4.80;58.92
84043;BME280;74129;52.540;13.416;2023-12-22T12:17:42;98328.58;;;4.82;58.91
84043;BME280;74129;52.540;13.416;2023-12-22T12:20:12;98324.33;;;4.79;58.74
84043;BME280;74129;52.540;13.416;2023-12-22T12:22:42;98343.20;;;4.79;58.52
84043;BME280;74129;52.540;13.416;2023-12-22T12:25:12;98325.29;;;4.79;58.58
84043;BME280;74129;52.540;13.416;2023-12-22T12:27:39;98340.58;;;4.79;58.43
84043;BME280;74129;52.540;13.416;2023-12-22T12:30:18;98336.58;;;4.77;58.68
84043;BME280;74129;52.540;13.416;2023-12-22T12:32:48;98337.92;;;4.76;58.94
84043;BME280;74129;52.540;13.416;2023-12-22T12:35:34;98333.02;;;4.73;59.23
84043;BME280;74129;52.540;13.416;2023-12-22T12:38:06;98361.16;;;4.71;59.01
84043;BME280;74129;52.540;13.416;2023-12-22T12:40:41;98342.64;;;4.68;59.32
84043;BME280;74129;52.540;13.416;2023-12-22T12:43:12;98344.93;;;4.68;59.51
84043;BME280;74129;52.540;13.416;2023-12-22T12:45:40;98349.62;;;4.65;59.72
84043;BME280;74129;52.540;13.416;2023-12-22T12:48:21;98362.03;;;4.61;59.56
84043;BME280;74129;52.540;13.416;2023-12-22T12:50:51;98356.99;;;4.56;59.77
84043;BME280;74129;52.540;13.416;2023-12-22T12:53:41;98367.42;;;4.55;59.52
84043;BME280;74129;52.540;13.416;2023-12-22T12:56:07;98349.07;;;4.52;59.72
84043;BME280;74129;52.540;13.416;2023-12-22T12:58:56;98355.35;;;4.47;59.60
84043;BME280;74129;52.540;13.416;2023-12-22T13:01:46;98356.16;;;4.47;59.84
84043;BME280;74129;52.540;13.416;2023-12-22T13:04:37;98343.11;;;4.49;59.95
84043;BME280;74129;52.540;13.416;2023-12-22T13:07:10;98350.36;;;4.49;60.06
84043;BME280;74129;52.540;13.416;2023-12-22T13:09:49;98344.66;;;4.47;59.87
84043;BME280;74129;52.540;13.416;2023-12-22T13:12:35;98359.46;;;4.45;60.25
84043;BME280;74129;52.540;13.416;2023-12-22T13:15:20;98356.77;;;4.43;60.82
84043;BME280;74129;52.540;13.416;2023-12-22T13:17:54;98351.10;;;4.44;60.69
84043;BME280;74129;52.540;13.416;2023-12-22T13:20:22;98341.31;;;4.44;61.11
84043;BME280;74129;52.540;13.416;2023-12-22T13:23:18;98338.64;;;4.47;61.18
84043;BME280;74129;52.540;13.416;2023-12-22T13:26:04;98340.55;;;4.52;61.16
84043;BME280;74129;52.540;13.416;2023-12-22T13:29:08;98336.98;;;4.52;61.07
84043;BME280;74129;52.540;13.416;2023-12-22T13:34:42;98341.23;;;4.55;60.56
84043;BME280;74129;52.540;13.416;2023-12-22T13:37:15;98336.13;;;4.54;60.57
84043;BME280;74129;52.540;13.416;2023-12-22T13:39:43;98368.71;;;4.53;60.06
84043;BME280;74129;52.540;13.416;2023-12-22T13:42:41;98346.41;;;4.54;60.01
84043;BME280;74129;52.540;13.416;2023-12-22T13:45:21;98343.47;;;4.56;59.94
84043;BME280;74129;52.540;13.416;2023-12-22T13:47:53;98354.64;;;4.59;60.17
84043;BME280;74129;52.540;13.416;2023-12-22T13:50:30;98362.15;;;4.61;59.93
84043;BME280;74129;52.540;13.416;2023-12-22T13:53:16;98357.23;;;4.63;60.15
84043;BME280;74129;52.540;13.416;2023-12-22T13:56:05;98356.80;;;4.65;59.89
84043;BME280;74129;52.540;13.416;2023-12-22T13:58:43;98371.77;;;4.65;59.70
84043;BME280;74129;52.540;13.416;2023-12-22T14:01:31;98359.58;;;4.65;59.77
84043;BME280;74129;52.540;13.416;2023-12-22T14:03:59;98368.21;;;4.64;59.92
84043;BME280;74129;52.540;13.416;2023-12-22T14:06:38;98382.42;;;4.63;60.21
84043;BME280;74129;52.540;13.416;2023-12-22T14:12:03;98383.98;;;4.57;60.23
84043;BME280;74129;52.540;13.416;2023-12-22T14:14:33;98390.54;;;4.53;60.25
84043;BME280;74129;52.540;13.416;2023-12-22T14:17:13;98379.63;;;4.48;60.38
84043;BME280;74129;52.540;13.416;2023-12-22T14:19:47;98398.59;;;4.45;60.34
84043;BME280;74129;52.540;13.416;2023-12-22T14:22:34;98388.42;;;4.41;60.96
84043;BME280;74129;52.540;13.416;2023-12-22T14:25:06;98389.40;;;4.34;61.43
84043;BME280;74129;52.540;13.416;2023-12-22T14:28:00;98404.14;;;4.29;61.82
84043;BME280;74129;52.540;13.416;2023-12-22T14:30:38;98395.58;;;4.23;62.37
84043;BME280;74129;52.540;13.416;2023-12-22T14:33:04;98405.46;;;4.17;62.72
84043;BME280;74129;52.540;13.416;2023-12-22T14:35:34;98403.98;;;4.09;63.10
84043;BME280;74129;52.540;13.416;2023-12-22T14:38:15;98409.41;;;4.02;63.71
84043;BME280;74129;52.540;13.416;2023-12-22T14:40:44;98407.29;;;3.96;64.24